METAR Data
IDs: Format: Raw Decoded Include TAF

Data at: 1142 UTC 16 Oct 2018

PAYA 161053Z AUTO 12014G26KT 10SM -RA OVC028 12/08 A2986 RMK AO2 PK WND 14035/0959 RAB09E23B39 SLP110 P0000 T01220083 TSNO
PAYA 161012Z AUTO 12016G29KT 9SM -RA BKN029 OVC039 12/07 A2989 RMK AO2 PK WND 14035/0959 RAB09 P0000 T01220067 TSNO
PAYA 160953Z AUTO 13016G29KT 10SM BKN030 OVC038 13/06 A2990 RMK AO2 PK WND 12033/0935 RAE37 SLP125 P0000 T01280061 TSNO
PAYA 160929Z AUTO 11014G28KT 9SM -RA OVC030 12/07 A2991 RMK AO2 PK WND 12030/0913 PRESFR P0000 T01220067 TSNO
PAYA 160917Z AUTO 12020G30KT 7SM -RA OVC029 12/07 A2992 RMK AO2 PK WND 12030/0913 P0000 T01220067 TSNO
PAYA 160853Z AUTO 12014G25KT 9SM -RA OVC031 12/07 A2993 RMK AO2 PK WND 12028/0841 RAE06B30 SLP136 P0000 60000 T01220067 401330111 56017 TSNO
PAYA 160753Z AUTO 11012G22KT 10SM -RA OVC032 12/07 A2994 RMK AO2 RAB05E17B45 SLP138 P0000 T01220072 TSNO
PAYA 160653Z AUTO 10009G17KT 10SM OVC030 12/07 A2996 RMK AO2 RAB11E44 SLP145 P0000 T01220072 TSNO
PAYA 160644Z AUTO 10008KT 10SM OVC030 12/07 A2996 RMK AO2 RAB11E44 P0000 T01170072 TSNO
PAYA 160619Z AUTO 11010G20KT 10SM -RA BKN029 OVC038 12/08 A2998 RMK AO2 RAB11 P0000 T01220083 TSNO
PAYA 160553Z AUTO 12014G23KT 10SM BKN042 OVC055 12/08 A2998 RMK AO2 PK WND 12028/0537 SLP153 60001 T01220078 10122 20117 56008 TSNO
PAYA 160453Z AUTO 12016G27KT 10SM FEW015 BKN032 OVC041 12/09 A2999 RMK AO2 PK WND 11027/0452 SLP155 T01220089 TSNO
PAYA 160428Z AUTO 12014G21KT 10SM BKN015 OVC031 12/09 A2999 RMK AO2 PK WND 13026/0355 T01220094 TSNO
PAYA 160353Z AUTO 12014G21KT 10SM OVC012 12/09 A3000 RMK AO2 RAB0255E22 SLP159 P0000 T01220094 TSNO
PAYA 160253Z AUTO 12011G24KT 8SM OVC011 12/10 A3001 RMK AO2 SLP161 60001 T01220100 55006 TSNO
PAYA 160153Z AUTO 13013G21KT 8SM OVC011 12/10 A3000 RMK AO2 SLP159 T01220100 TSNO
PAYA 160109Z AUTO 13012G20KT 7SM OVC010 12/10 A3001 RMK AO2 CIG 006V014 T01220100 TSNO
PAYA 160053Z AUTO 13014G23KT 8SM OVC008 12/11 A3002 RMK AO2 PK WND 12028/0019 RAE23 CIG 006V013 SLP166 P0001 T01220106 TSNO
PAYA 160022Z AUTO 13016G28KT 7SM -RA BKN008 OVC014 12/11 A3001 RMK AO2 PK WND 12028/0019 P0000 T01220106 TSNO
PAYA 160014Z AUTO 14012G28KT 2 1/2SM -RA BR BKN006 OVC014 12/11 A3002 RMK AO2 PK WND 14028/0008 P0000 T01220106 TSNO
PAYA 152353Z AUTO 13012G30KT 1 3/4SM R11/5500VP6000FT -RA BR OVC006 12/11 A3003 RMK AO2 PK WND 15030/2346 SLP168 P0001 60040 T01220106 10133 20122 51015 TSNO
PAYA 152340Z AUTO 14013G24KT 100V170 2SM R11/6000VP6000FT -RA BR OVC006 12/11 A3003 RMK AO2 PK WND 13028/2330 P0001 T01220106 TSNO
PAYA 152327Z AUTO 13013G25KT 1 1/4SM R11/4500V6000FT -RA BR OVC006 12/11 A3003 RMK AO2 PK WND 14026/2306 P0000 T01220106 TSNO
PAYA 152318Z AUTO 14013G23KT 2 1/2SM R11/5500VP6000FT -RA BR OVC006 12/11 A3003 RMK AO2 PK WND 14026/2306 P0000 T01220111 TSNO
PAYA 152257Z AUTO 13013G27KT 3SM R11/5500VP6000FT -RA BR OVC005 13/11 A3003 RMK AO2 P0000 T01280111 TSNO
PAYA 152253Z AUTO 13016G27KT 1 3/4SM R11/4500VP6000FT -RA BR OVC005 13/11 A3003 RMK AO2 PK WND 13027/2150 SLP168 P0001 T01280111 TSNO
PAYA 152225Z AUTO 14015G27KT 1 3/4SM R11/5000VP6000FT -RA BR OVC005 13/11 A3002 RMK AO2 PK WND 13027/2150 P0000 T01280111 TSNO
PAYA 152216Z AUTO 14013G24KT 5SM -RA BR OVC005 13/11 A3002 RMK AO2 PK WND 13027/2150 P0000 T01280111 TSNO
PAYA 152207Z AUTO 14012G24KT 2SM R11/6000VP6000FT -RA BR OVC005 13/11 A3001 RMK AO2 PK WND 13027/2150 P0000 T01280111 TSNO
PAYA 152157Z AUTO 14015G27KT 5SM R11/5500VP6000FT -RA BR OVC004 13/12 A3001 RMK AO2 PK WND 13027/2150 P0000 T01280117 TSNO
PAYA 152148Z AUTO 13015G30KT 2 1/2SM -RA BR OVC004 13/12 A3001 RMK AO2 PK WND 12030/2144 RAE13B39 SLP161 P0000 T01280117 TSNO
PAYA 152147Z AUTO 14012G30KT 2 1/2SM -RA BR OVC004 13/12 A3001 RMK AO2 PK WND 12030/2144 RAE13B39 P0000 TSNO
PAYA 152128Z AUTO 13016G27KT 6SM BR OVC005 13/12 A3000 RMK AO2 PK WND 14028/2054 RAE13 P0000 T01330117 TSNO
PAYA 152107Z AUTO 14015G27KT 3SM -RA BR OVC004 13/12 A2999 RMK AO2 PK WND 14028/2054 P0000 T01330117 TSNO
PAYA 152053Z AUTO 14017G28KT 2SM -RA BR OVC005 13/12 A2998 RMK AO2 PK WND 12029/2042 SLP153 P0003 60038 T01330117 51017 TSNO
PAYA 152051Z AUTO 14016G29KT 2SM -RA BR OVC005 13/12 A2998 RMK AO2 PK WND 12029/2042 P0003 TSNO
PAYA 152044Z AUTO 14014G29KT 1 3/4SM R11/5000VP6000FT -RA BR OVC005 13/12 A2998 RMK AO2 PK WND 12029/2042 P0002 T01280117 TSNO
PAYA 152034Z AUTO 14016G24KT 2SM R11/4500VP6000FT -RA BR OVC005 13/12 A2998 RMK AO2 PK WND 12026/1955 VIS 1 1/2V3 P0002 T01330117 TSNO
PAYA 152015Z AUTO 14015G26KT 1 3/4SM R11/5500VP6000FT -RA BR OVC004 13/12 A2997 RMK AO2 PK WND 12026/1955 P0002 T01280117 TSNO
PAYA 152002Z AUTO 13015G26KT 1 1/4SM R11/4500V6000FT -RA BR OVC005 13/12 A2997 RMK AO2 PK WND 12026/1955 P0002 T01280117 TSNO
PAYA 151953Z AUTO 14015G29KT 1 1/2SM R11/4500VP6000FT -RA BR BKN005 OVC008 13/12 A2996 RMK AO2 PK WND 14029/1951 SLP145 P0015 T01280117 TSNO
PAYA 151934Z AUTO 13015G25KT 1SM R11/3500V6000FT +RA BR OVC007 13/12 A2995 RMK AO2 PK WND 14029/1858 P0014 T01280117 TSNO
PAYA 151927Z AUTO 13013G26KT 1 1/2SM R11/4000VP6000FT RA BR OVC006 13/12 A2995 RMK AO2 PK WND 14029/1858 P0009 T01280117 TSNO
PAYA 151914Z AUTO 13018G27KT 2SM R11/5500VP6000FT RA BR OVC006 13/12 A2994 RMK AO2 PK WND 14029/1858 P0003 T01280117 TSNO
PAYA 151853Z AUTO 13014G23KT 1 1/4SM R11/5000VP6000FT RA BR OVC007 13/12 A2993 RMK AO2 SLP136 P0020 T01280117 TSNO
PAYA 151753Z AUTO 12011G19KT 2SM RA BR OVC009 13/12 A2991 RMK AO2 SLP128 P0032 60084 T01280117 10128 20111 50002 TSNO
PAYA 151751Z AUTO 12013G19KT 2SM R11/6000VP6000FT RA BR OVC009 13/12 A2991 RMK AO2 P0032 TSNO
PAYA 151740Z AUTO 12010KT 1 3/4SM +RA BR OVC009 13/12 A2991 RMK AO2 P0025 T01280117 TSNO
PAYA 151733Z AUTO 11007KT 2SM +RA BR OVC009 12/11 A2991 RMK AO2 P0020 T01220111 TSNO
PAYA 151703Z AUTO 10007KT 1 3/4SM R11/6000VP6000FT RA BR OVC013 12/11 A2991 RMK AO2 P0003 T01170106 TSNO
PAYA 151653Z AUTO 10007KT 2SM RA BR OVC013 12/11 A2990 RMK AO2 SLP126 P0019 T01170106 TSNO
PAYA 151649Z AUTO 10007KT 2SM R11/6000VP6000FT RA BR OVC014 12/11 A2990 RMK AO2 P0018 TSNO
PAYA 151623Z AUTO 10008KT 3SM RA BR OVC013 12/11 A2990 RMK AO2 P0007 T01170106 TSNO
PAYA 151553Z AUTO 09007KT 2 1/2SM RA BR OVC011 11/10 A2989 RMK AO2 SLP121 P0006 T01110100 TSNO
PAYA 151519Z AUTO 08006KT 2SM -RA BR OVC010 11/10 A2988 RMK AO2 P0004 T01110100 TSNO
PAYA 151453Z AUTO 09005KT 1 1/2SM -RA BR OVC006 11/10 A2988 RMK AO2 SLP120 P0006 60027 T01110100 51008 TSNO
PAYA 151428Z AUTO 10004KT 1 1/2SM R11/5500VP6000FT -RA BR OVC005 12/11 A2988 RMK AO2 P0005 T01170106 TSNO
PAYA 151408Z AUTO 09008KT 1 1/4SM R11/4500V6000FT -RA BR OVC004 12/11 A2988 RMK AO2 P0002 T01170106 TSNO
PAYA 151401Z AUTO 08009KT 1 1/4SM R11/4500VP6000FT -RA BR OVC005 12/11 A2988 RMK AO2 P0001 T01170106 TSNO
PAYA 151353Z AUTO 08006KT 2SM R11/6000VP6000FT -RA BR OVC005 12/11 A2988 RMK AO2 SLP117 P0007 T01170106 TSNO
PAYA 151314Z AUTO 08007KT 1 1/2SM R11/5500VP6000FT -RA BR OVC007 11/10 A2987 RMK AO2 P0004 T01110100 TSNO
PAYA 151307Z AUTO 08008KT 1 1/4SM R11/5500VP6000FT -RA BR OVC008 11/10 A2987 RMK AO2 P0003 T01110100 TSNO
PAYA 151300Z AUTO 09009KT 1 1/2SM R11/5500VP6000FT -RA BR OVC008 11/10 A2987 RMK AO2 P0001 T01110100 TSNO
PAYA 151253Z AUTO 09007KT 2SM -RA BR OVC009 11/10 A2987 RMK AO2 SLP115 P0014 T01110100 TSNO
PAYA 151213Z AUTO 08008KT 2 1/2SM -RA BR OVC009 11/10 A2986 RMK AO2 P0007 T01110100 TSNO
PAYA 151206Z AUTO 06007KT 2SM R11/6000VP6000FT -RA BR FEW004 OVC010 11/10 A2986 RMK AO2 P0005 T01110100 TSNO
PAYA 151158Z AUTO 07007KT 1 3/4SM RA BR OVC010 11/10 A2986 RMK AO2 P0003 T01110100 TSNO
PAYA 151153Z AUTO 07011KT 2SM -RA BR OVC010 11/10 A2986 RMK AO2 SLP111 P0008 60044 70132 T01110100 10122 20111 51016 TSNO
PAYA 151138Z AUTO VRB03KT 2 1/2SM RA BR OVC010 12/10 A2985 RMK AO2 P0005 T01170100 TSNO
PAYA 151120Z AUTO 00000KT 1 1/2SM R11/5500VP6000FT -RA BR SCT008 OVC012 12/10 A2984 RMK AO2 P0002 T01170100 TSNO
PAYA 151053Z AUTO 24004KT 1 1/2SM R11/6000VP6000FT -RA BR OVC006 12/11 A2983 RMK AO2 SLP102 P0003 T01170106 TSNO
PAYA 151037Z AUTO 08008KT 2SM -RA BR OVC005 12/10 A2983 RMK AO2 P0003 T01170100 TSNO
PAYA 151025Z AUTO 10011KT 1 3/4SM -RA BR OVC007 12/10 A2982 RMK AO2 P0002 T01170100 TSNO
PAYA 150953Z AUTO 08003KT 2 1/2SM -RA BR OVC007 12/11 A2981 RMK AO2 SLP095 P0006 T01170106 TSNO
PAYA 150912Z AUTO 00000KT 1 1/2SM R11/5500VP6000FT -RA BR OVC008 12/11 A2980 RMK AO2 P0000 T01220106 TSNO
PAYA 150853Z AUTO 05003KT 2SM -RA BR OVC007 12/11 A2980 RMK AO2 SLP091 P0008 60027 T01170106 401170078 53007 TSNO
PAYA 150834Z AUTO 10008KT 2SM -RA BR BKN009 OVC013 12/11 A2980 RMK AO2 P0006 T01170106 TSNO
PAYA 150817Z AUTO 09010KT 2SM -RA BR OVC010 11/10 A2980 RMK AO2 P0004 T01110100 TSNO
PAYA 150807Z AUTO 10006KT 3SM -RA BR OVC010 11/10 A2979 RMK AO2 P0003 T01110100 TSNO
PAYA 150753Z AUTO 10011KT 1 1/2SM RA BR BKN011 OVC014 11/10 A2978 RMK AO2 SLP086 P0010 T01110100 TSNO
PAYA 150653Z AUTO 06004KT 2 1/2SM -RA BR OVC010 11/10 A2978 RMK AO2 SLP083 P0009 T01110100 TSNO
PAYA 150644Z AUTO 07007KT 2SM -RA BR OVC010 11/10 A2977 RMK AO2 P0008 T01110100 TSNO
PAYA 150625Z AUTO 09006KT 1 3/4SM R11/5000VP6000FT -RA BR OVC007 11/10 A2977 RMK AO2 P0005 T01110100 TSNO
PAYA 150622Z AUTO 08005KT 3SM -RA BR OVC007 11/10 A2977 RMK AO2 P0004 T01110100 TSNO
PAYA 150613Z AUTO 09007G19KT 080V150 2 1/2SM -RA BR OVC009 12/10 A2977 RMK AO2 P0004 T01170100 TSNO
PAYA 150553Z AUTO 09012KT 3SM -RA BR OVC009 11/10 A2976 RMK AO2 SLP078 P0007 60069 T01110100 10117 20106 51006 TSNO
PAYA 150528Z AUTO 09009KT 2SM -RA BR OVC009 11/10 A2976 RMK AO2 P0005 T01110100 TSNO
PAYA 150517Z AUTO 09010KT 1 3/4SM -RA BR OVC009 11/10 A2976 RMK AO2 P0004 T01110100 TSNO
PAYA 150509Z AUTO 10010KT 1 1/4SM R11/5500VP6000FT -RA BR OVC009 11/10 A2976 RMK AO2 P0003 T01110100 TSNO
PAYA 150453Z AUTO 10009KT 1 1/2SM R11/6000VP6000FT -RA BR OVC009 11/10 A2976 RMK AO2 SLP077 P0005 T01110100 TSNO
PAYA 150433Z AUTO 09010KT 1 1/2SM -RA BR OVC009 11/10 A2975 RMK AO2 P0003 T01110100 TSNO
PAYA 150408Z AUTO 08011KT 2 1/2SM -RA BR OVC009 11/10 A2975 RMK AO2 P0001 T01110100 TSNO
PAYA 150403Z AUTO 09011KT 3SM -RA BR OVC011 11/10 A2975 RMK AO2 P0000 T01110100 TSNO
PAYA 150353Z AUTO 09013KT 2SM -RA BR OVC011 11/10 A2975 RMK AO2 SLP074 P0017 T01110100 TSNO
PAYA 150330Z AUTO 11009G15KT 2 1/2SM +RA BR OVC011 12/10 A2975 RMK AO2 P0010 T01170100 TSNO
PAYA 150312Z AUTO 11007KT 3SM -RA BR OVC013 11/09 A2975 RMK AO2 P0005 T01110094 TSNO
PAYA 150301Z AUTO 09010KT 2 1/2SM RA BR OVC014 11/09 A2974 RMK AO2 P0003 T01110094 TSNO
PAYA 150253Z AUTO 10006KT 3SM RA BR OVC014 11/09 A2975 RMK AO2 SLP073 P0018 60040 T01110094 56008 TSNO
PAYA 150240Z AUTO 09010KT 3SM RA BR OVC014 11/09 A2975 RMK AO2 P0015 T01110094 TSNO
PAYA 150211Z AUTO 09009KT 2 1/2SM RA BR OVC013 11/09 A2975 RMK AO2 P0005 T01060094 TSNO
PAYA 150153Z AUTO 10009KT 1 1/2SM RA BR OVC012 11/09 A2975 RMK AO2 SLP074 P0012 T01060094 TSNO
PAYA 150127Z AUTO 10009KT 1 1/2SM RA BR OVC013 11/09 A2975 RMK AO2 P0005 T01110094 TSNO
PAYA 150053Z AUTO 08011KT 2 1/2SM RA BR OVC011 11/09 A2975 RMK AO2 SLP074 P0010 T01060094 TSNO
PAYA 150034Z AUTO 08008KT 2SM RA BR OVC013 11/09 A2976 RMK AO2 P0006 T01060094 TSNO
PAYA 150018Z AUTO 09008KT 2SM R11/6000VP6000FT RA BR OVC015 11/09 A2976 RMK AO2 P0003 T01060094 TSNO
PAYA 142353Z AUTO 09009KT 3SM -RA BR OVC015 11/09 A2977 RMK AO2 SLP081 P0009 60018 T01060094 10106 20083 56024 TSNO